createdAt,value
2023-03-29T00:01:44.552Z,100996.38
2023-03-29T00:04:11.082Z,100985.59
2023-03-29T00:06:37.430Z,100987.22
2023-03-29T00:09:03.783Z,100982.13
2023-03-29T00:11:30.090Z,100980.59
2023-03-29T00:13:56.405Z,100982.97
2023-03-29T00:16:22.793Z,100978.22
2023-03-29T00:18:49.214Z,100982.19
2023-03-29T00:21:15.551Z,100975.66
2023-03-29T00:23:41.854Z,100979.41
2023-03-29T00:26:08.531Z,100985.69
2023-03-29T00:28:34.948Z,100981.69
2023-03-29T00:31:01.453Z,100975.94
2023-03-29T00:33:27.936Z,100980.53
2023-03-29T00:35:54.355Z,100987.06
2023-03-29T00:38:20.822Z,100972.00
2023-03-29T00:40:47.193Z,100979.75
2023-03-29T00:43:13.494Z,100979.91
2023-03-29T00:45:39.811Z,100977.13
2023-03-29T00:48:06.188Z,100984.09
2023-03-29T00:50:32.550Z,100975.94
2023-03-29T00:52:58.857Z,100970.59
2023-03-29T00:55:25.277Z,100977.03
2023-03-29T00:57:51.628Z,100968.50
2023-03-29T01:00:17.949Z,100973.22
2023-03-29T01:02:44.357Z,100973.13
2023-03-29T01:05:10.789Z,100968.09
2023-03-29T01:07:37.135Z,100961.91
2023-03-29T01:10:03.594Z,100965.06
2023-03-29T01:12:29.951Z,100970.59
2023-03-29T01:14:56.261Z,100965.97
2023-03-29T01:17:22.561Z,100972.88
2023-03-29T01:19:48.863Z,100963.16
2023-03-29T01:22:15.222Z,100960.34
2023-03-29T01:24:41.532Z,100958.09
2023-03-29T01:27:07.883Z,100950.34
2023-03-29T01:29:34.242Z,100950.25
2023-03-29T01:32:00.644Z,100949.94
2023-03-29T01:34:26.964Z,100939.06
2023-03-29T01:36:53.301Z,100943.31
2023-03-29T01:39:19.652Z,100946.03
2023-03-29T01:41:46.034Z,100947.97
2023-03-29T01:44:12.349Z,100939.81
2023-03-29T01:46:38.732Z,100937.88
2023-03-29T01:49:05.123Z,100941.75
2023-03-29T01:51:31.475Z,100937.97
2023-03-29T01:53:57.783Z,100944.13
2023-03-29T01:56:24.094Z,100939.91
2023-03-29T01:58:50.424Z,100940.13
2023-03-29T02:01:16.792Z,100947.28
2023-03-29T02:03:43.190Z,100942.19
2023-03-29T02:06:09.572Z,100950.34
2023-03-29T02:08:35.924Z,100950.16
2023-03-29T02:11:02.475Z,100943.53
2023-03-29T02:13:29.062Z,100942.00
2023-03-29T02:15:55.396Z,100946.75
2023-03-29T02:18:21.781Z,100943.63
2023-03-29T02:20:48.151Z,100935.56
2023-03-29T02:23:14.573Z,100940.81
2023-03-29T02:25:41.079Z,100934.28
2023-03-29T02:28:07.389Z,100922.28
2023-03-29T02:30:33.699Z,100911.41
2023-03-29T02:33:00.103Z,100914.91
2023-03-29T02:35:26.628Z,100920.53
2023-03-29T02:37:52.955Z,100914.47
2023-03-29T02:40:19.281Z,100916.03
2023-03-29T02:42:45.611Z,100901.97
2023-03-29T02:45:11.964Z,100902.44
2023-03-29T02:47:38.366Z,100895.53
2023-03-29T02:50:04.771Z,100898.59
2023-03-29T02:52:31.108Z,100899.72
2023-03-29T02:54:57.450Z,100885.34
2023-03-29T02:57:23.814Z,100885.09
2023-03-29T02:59:50.212Z,100895.44
2023-03-29T03:02:16.613Z,100886.53
2023-03-29T03:04:43.067Z,100890.88
2023-03-29T03:07:09.414Z,100888.47
2023-03-29T03:09:35.718Z,100905.16
2023-03-29T03:12:02.061Z,100894.69
2023-03-29T03:14:28.541Z,100895.00
2023-03-29T03:16:54.849Z,100897.72
2023-03-29T03:19:21.166Z,100891.19
2023-03-29T03:21:47.507Z,100890.53
2023-03-29T03:24:13.848Z,100878.38
2023-03-29T03:26:40.152Z,100870.97
2023-03-29T03:29:06.494Z,100879.03
2023-03-29T03:31:32.940Z,100885.66
2023-03-29T03:33:59.329Z,100894.44
2023-03-29T03:36:25.678Z,100890.00
2023-03-29T03:38:52.031Z,100886.13
2023-03-29T03:41:18.328Z,100872.94
2023-03-29T03:43:44.640Z,100881.00
2023-03-29T03:46:11.048Z,100884.66
2023-03-29T03:48:37.453Z,100885.94
2023-03-29T03:51:04.063Z,100893.81
2023-03-29T03:53:30.613Z,100886.75
2023-03-29T03:55:56.942Z,100878.09
2023-03-29T03:58:23.377Z,100877.50
2023-03-29T04:00:49.736Z,100879.47
2023-03-29T04:03:16.220Z,100876.31
2023-03-29T04:05:42.681Z,100875.56
2023-03-29T04:08:09.038Z,100879.03
2023-03-29T04:10:35.393Z,100875.88
2023-03-29T04:13:01.704Z,100877.66
2023-03-29T04:15:28.044Z,100878.00
2023-03-29T04:17:54.462Z,100867.63
2023-03-29T04:20:20.778Z,100859.91
2023-03-29T04:22:47.101Z,100873.50
2023-03-29T04:25:13.447Z,100877.41
2023-03-29T04:27:39.764Z,100869.94
2023-03-29T04:30:06.122Z,100861.63
2023-03-29T04:32:32.461Z,100869.25
2023-03-29T04:34:58.824Z,100872.06
2023-03-29T04:37:25.172Z,100867.91
2023-03-29T04:39:51.483Z,100860.88
2023-03-29T04:42:17.787Z,100863.69
2023-03-29T04:44:44.205Z,100864.00
2023-03-29T04:47:10.534Z,100855.16
2023-03-29T04:49:36.841Z,100861.06
2023-03-29T04:52:03.156Z,100874.38
2023-03-29T04:54:29.469Z,100865.38
2023-03-29T04:56:55.811Z,100853.31
2023-03-29T04:59:22.130Z,100854.66
2023-03-29T05:01:48.496Z,100867.50
2023-03-29T05:04:15.012Z,100864.72
2023-03-29T05:06:41.343Z,100874.22
2023-03-29T05:09:07.696Z,100877.78
2023-03-29T05:11:34.000Z,100883.47
2023-03-29T05:14:00.361Z,100873.78
2023-03-29T05:16:26.772Z,100863.16
2023-03-29T05:18:53.194Z,100864.34
2023-03-29T05:21:19.511Z,100862.56
2023-03-29T05:23:45.810Z,100870.13
2023-03-29T05:26:12.113Z,100856.72
2023-03-29T05:28:38.436Z,100857.47
2023-03-29T05:31:05.074Z,100856.84
2023-03-29T05:33:31.602Z,100858.72
2023-03-29T05:35:57.974Z,100850.97
2023-03-29T05:38:24.351Z,100839.97
2023-03-29T05:40:50.649Z,100849.22
2023-03-29T05:43:16.959Z,100847.59
2023-03-29T05:45:43.398Z,100838.16
2023-03-29T05:48:09.784Z,100850.56
2023-03-29T05:50:36.094Z,100854.97
2023-03-29T05:53:02.462Z,100862.94
2023-03-29T05:55:28.817Z,100862.28
2023-03-29T05:57:55.180Z,100861.00
2023-03-29T06:00:21.518Z,100857.72
2023-03-29T06:02:47.934Z,100866.97
2023-03-29T06:05:14.329Z,100872.06
2023-03-29T06:07:40.708Z,100863.41
2023-03-29T06:10:07.007Z,100859.25
2023-03-29T06:12:33.383Z,100860.69
2023-03-29T06:14:59.756Z,100850.88
2023-03-29T06:17:26.103Z,100854.47
2023-03-29T06:19:52.588Z,100846.31
2023-03-29T06:22:18.976Z,100846.22
2023-03-29T06:24:45.335Z,100840.78
2023-03-29T06:27:11.686Z,100849.72
2023-03-29T06:29:39.135Z,100844.38
2023-03-29T06:32:05.451Z,100850.03
2023-03-29T06:34:31.760Z,100845.34
2023-03-29T06:36:58.107Z,100842.31
2023-03-29T06:39:24.834Z,100851.56
2023-03-29T06:41:51.767Z,100853.72
2023-03-29T06:44:18.173Z,100857.78
2023-03-29T06:46:44.530Z,100849.59
2023-03-29T06:49:10.858Z,100852.84
2023-03-29T06:51:37.185Z,100852.06
2023-03-29T06:54:03.506Z,100847.28
2023-03-29T06:56:29.872Z,100847.41
2023-03-29T06:58:56.363Z,100845.44
2023-03-29T07:01:22.705Z,100841.97
2023-03-29T07:03:49.044Z,100848.75
2023-03-29T07:06:15.435Z,100852.34
2023-03-29T07:08:41.882Z,100850.47
2023-03-29T07:11:08.207Z,100862.84
2023-03-29T07:13:34.861Z,100854.03
2023-03-29T07:16:01.411Z,100856.38
2023-03-29T07:18:27.848Z,100864.44
2023-03-29T07:20:54.186Z,100866.53
2023-03-29T07:23:20.515Z,100865.88
2023-03-29T07:25:46.878Z,100860.41
2023-03-29T07:28:13.250Z,100866.94
2023-03-29T07:30:39.633Z,100856.72
2023-03-29T07:33:06.220Z,100866.09
2023-03-29T07:35:32.855Z,100864.56
2023-03-29T07:37:59.365Z,100855.31
2023-03-29T07:40:25.782Z,100858.47
2023-03-29T07:42:52.146Z,100851.38
2023-03-29T07:45:18.509Z,100855.75
2023-03-29T07:47:53.064Z,100841.56
2023-03-29T07:50:19.430Z,100852.38
2023-03-29T07:52:45.824Z,100851.28
2023-03-29T07:55:12.202Z,100851.06
2023-03-29T07:57:38.670Z,100852.81
2023-03-29T08:00:04.991Z,100852.81
2023-03-29T08:02:31.836Z,100864.03
2023-03-29T08:04:58.230Z,100862.75
2023-03-29T08:07:24.756Z,100864.47
2023-03-29T08:09:51.165Z,100870.03
2023-03-29T08:12:17.491Z,100862.50
2023-03-29T08:14:43.805Z,100867.53
2023-03-29T08:17:10.196Z,100872.84
2023-03-29T08:19:36.624Z,100871.44
2023-03-29T08:22:03.201Z,100864.47
2023-03-29T08:24:29.581Z,100860.53
2023-03-29T08:26:55.963Z,100862.50
2023-03-29T08:29:22.479Z,100861.94
2023-03-29T08:31:48.795Z,100863.59
2023-03-29T08:34:15.175Z,100871.75
2023-03-29T08:36:41.516Z,100872.09
2023-03-29T08:39:07.877Z,100870.34
2023-03-29T08:41:34.227Z,100876.13
2023-03-29T08:44:00.684Z,100863.16
2023-03-29T08:46:34.316Z,100858.91
2023-03-29T08:49:01.484Z,100851.59
2023-03-29T08:51:27.902Z,100849.00
2023-03-29T08:53:54.250Z,100857.69
2023-03-29T08:56:20.612Z,100849.66
2023-03-29T08:58:47.171Z,100845.28
2023-03-29T09:01:13.555Z,100848.34
2023-03-29T09:03:40.102Z,100855.06
2023-03-29T09:06:06.512Z,100859.66
2023-03-29T09:08:32.860Z,100848.97
2023-03-29T09:10:59.238Z,100853.66
2023-03-29T09:13:25.670Z,100851.72
2023-03-29T09:15:52.427Z,100849.09
2023-03-29T09:18:18.846Z,100853.13
2023-03-29T09:20:45.259Z,100843.53
2023-03-29T09:23:11.753Z,100849.88
2023-03-29T09:25:50.669Z,100841.44
2023-03-29T09:28:19.624Z,100852.47
2023-03-29T09:30:45.982Z,100856.38
2023-03-29T09:33:12.331Z,100839.06
2023-03-29T09:35:38.841Z,100843.09
2023-03-29T09:38:05.255Z,100833.63
2023-03-29T09:40:31.584Z,100841.78
2023-03-29T09:42:58.021Z,100837.41
2023-03-29T09:45:24.444Z,100836.78
2023-03-29T09:47:50.844Z,100835.69
2023-03-29T09:50:29.601Z,100828.28
2023-03-29T09:52:56.381Z,100823.28
2023-03-29T09:55:22.761Z,100825.00
2023-03-29T09:57:49.456Z,100817.72
2023-03-29T10:00:15.967Z,100811.47
2023-03-29T10:02:42.479Z,100814.97
2023-03-29T10:05:08.836Z,100816.28
2023-03-29T10:07:35.233Z,100816.63
2023-03-29T10:10:01.617Z,100811.50
2023-03-29T10:12:27.930Z,100823.69
2023-03-29T10:14:54.339Z,100821.94
2023-03-29T10:17:20.703Z,100808.06
2023-03-29T10:19:47.116Z,100815.81
2023-03-29T10:22:13.445Z,100804.84
2023-03-29T10:24:39.761Z,100796.16
2023-03-29T10:27:06.150Z,100794.13
2023-03-29T10:29:32.545Z,100793.78
2023-03-29T10:31:58.950Z,100796.13
2023-03-29T10:34:25.310Z,100802.25
2023-03-29T10:36:51.671Z,100789.38
2023-03-29T10:39:18.060Z,100793.53
2023-03-29T10:41:44.452Z,100782.03
2023-03-29T10:44:10.772Z,100780.97
2023-03-29T10:46:37.157Z,100785.00
2023-03-29T10:49:03.722Z,100785.00
2023-03-29T10:51:30.082Z,100779.66
2023-03-29T10:53:56.467Z,100769.81
2023-03-29T10:56:22.907Z,100768.53
2023-03-29T10:58:49.347Z,100771.34
2023-03-29T11:01:15.893Z,100771.00
2023-03-29T11:03:42.462Z,100770.50
2023-03-29T11:06:09.037Z,100766.13
2023-03-29T11:08:35.413Z,100772.09
2023-03-29T11:11:02.080Z,100765.53
2023-03-29T11:13:28.551Z,100762.81
2023-03-29T11:15:54.899Z,100761.59
2023-03-29T11:18:21.499Z,100758.25
2023-03-29T11:20:47.890Z,100751.84
2023-03-29T11:23:14.263Z,100752.66
2023-03-29T11:25:40.637Z,100745.91
2023-03-29T11:28:06.995Z,100754.56
2023-03-29T11:30:33.324Z,100752.47
2023-03-29T11:32:59.974Z,100761.44
2023-03-29T11:35:26.462Z,100752.16
2023-03-29T11:37:52.935Z,100753.63
2023-03-29T11:40:19.322Z,100746.69
2023-03-29T11:42:45.827Z,100751.41
2023-03-29T11:45:12.162Z,100751.97
2023-03-29T11:47:38.504Z,100743.97
2023-03-29T11:50:04.994Z,100736.16
2023-03-29T11:52:31.365Z,100727.25
2023-03-29T11:54:57.754Z,100713.19
2023-03-29T11:57:24.277Z,100713.94
2023-03-29T11:59:50.752Z,100701.97
2023-03-29T12:02:17.180Z,100700.72
2023-03-29T12:04:43.573Z,100693.00
2023-03-29T12:07:09.959Z,100687.56
2023-03-29T12:09:36.274Z,100688.72
2023-03-29T12:12:02.632Z,100684.84
2023-03-29T12:14:29.068Z,100684.25
2023-03-29T12:16:55.481Z,100671.59
2023-03-29T12:19:21.936Z,100665.63
2023-03-29T12:21:48.437Z,100668.88
2023-03-29T12:24:14.964Z,100662.53
2023-03-29T12:26:41.284Z,100653.22
2023-03-29T12:29:07.607Z,100642.19
2023-03-29T12:31:33.984Z,100643.88
2023-03-29T12:34:00.389Z,100641.38
2023-03-29T12:36:26.721Z,100647.25
2023-03-29T12:38:53.110Z,100641.16
2023-03-29T12:41:19.448Z,100630.59
2023-03-29T12:43:45.852Z,100628.69
2023-03-29T12:46:12.236Z,100616.59
2023-03-29T12:48:38.621Z,100618.97
2023-03-29T12:51:05.002Z,100620.97
2023-03-29T12:53:31.349Z,100610.38
2023-03-29T12:55:57.734Z,100616.34
2023-03-29T12:58:24.056Z,100615.16
2023-03-29T13:00:50.573Z,100606.97
2023-03-29T13:03:17.057Z,100602.28
2023-03-29T13:05:43.427Z,100601.53
2023-03-29T13:08:09.821Z,100595.69
2023-03-29T13:10:36.159Z,100599.69
2023-03-29T13:13:02.536Z,100606.56
2023-03-29T13:15:28.950Z,100604.63
2023-03-29T13:17:55.417Z,100598.16
2023-03-29T13:20:21.788Z,100598.50
2023-03-29T13:22:48.110Z,100591.28
2023-03-29T13:25:14.488Z,100589.63
2023-03-29T13:27:40.854Z,100579.19
2023-03-29T13:30:07.214Z,100569.72
2023-03-29T13:32:33.820Z,100569.38
2023-03-29T13:35:00.189Z,100562.72
2023-03-29T13:37:26.555Z,100558.41
2023-03-29T13:39:52.931Z,100555.09
2023-03-29T13:42:19.266Z,100548.59
2023-03-29T13:44:45.629Z,100547.69
2023-03-29T13:47:12.006Z,100552.06
2023-03-29T13:49:38.385Z,100552.75
2023-03-29T13:52:04.714Z,100544.06
2023-03-29T13:54:31.045Z,100540.91
2023-03-29T13:56:57.672Z,100530.19
2023-03-29T13:59:24.058Z,100537.28
2023-03-29T14:01:50.459Z,100529.75
2023-03-29T14:04:16.919Z,100522.31
2023-03-29T14:06:43.329Z,100518.66
2023-03-29T14:09:09.687Z,100524.56
2023-03-29T14:11:36.047Z,100516.25
2023-03-29T14:14:02.430Z,100516.81
2023-03-29T14:16:28.836Z,100524.94
2023-03-29T14:18:55.258Z,100518.09
2023-03-29T14:21:21.579Z,100513.69
2023-03-29T14:23:47.899Z,100505.75
2023-03-29T14:26:14.372Z,100505.63
2023-03-29T14:28:40.743Z,100504.53
2023-03-29T14:31:07.098Z,100508.59
2023-03-29T14:33:33.474Z,100503.97
2023-03-29T14:35:59.886Z,100495.84
2023-03-29T14:38:26.419Z,100493.00
2023-03-29T14:40:52.763Z,100486.59
2023-03-29T14:43:19.152Z,100499.66
2023-03-29T14:45:45.716Z,100483.56
2023-03-29T14:48:12.181Z,100473.44
2023-03-29T14:50:38.628Z,100477.97
2023-03-29T14:53:04.956Z,100481.22
2023-03-29T14:55:31.340Z,100471.50
2023-03-29T14:57:57.952Z,100475.41
2023-03-29T15:00:24.271Z,100464.66
2023-03-29T15:02:50.628Z,100459.84
2023-03-29T15:05:17.016Z,100456.72
2023-03-29T15:07:43.354Z,100444.25
2023-03-29T15:10:09.703Z,100442.31
2023-03-29T15:12:36.019Z,100444.38
2023-03-29T15:15:02.414Z,100429.31
2023-03-29T15:17:36.317Z,100426.38
2023-03-29T15:20:09.274Z,100414.59
2023-03-29T15:22:35.882Z,100410.38
2023-03-29T15:25:02.246Z,100401.75
2023-03-29T15:27:28.553Z,100397.00
2023-03-29T15:29:54.922Z,100385.97
2023-03-29T15:32:21.382Z,100387.59
2023-03-29T15:34:47.752Z,100391.94
2023-03-29T15:37:14.258Z,100387.22
2023-03-29T15:39:40.736Z,100381.47
2023-03-29T15:42:07.172Z,100382.38
2023-03-29T15:44:33.543Z,100374.69
2023-03-29T15:47:00.093Z,100381.47
2023-03-29T15:49:26.530Z,100373.31
2023-03-29T15:51:52.967Z,100373.78
2023-03-29T15:54:19.344Z,100368.31
2023-03-29T15:56:45.746Z,100362.09
2023-03-29T15:59:12.196Z,100369.38
2023-03-29T16:01:38.650Z,100369.22
2023-03-29T16:04:05.015Z,100372.38
2023-03-29T16:06:31.380Z,100359.69
2023-03-29T16:08:57.993Z,100363.94
2023-03-29T16:11:24.370Z,100357.88
2023-03-29T16:13:50.766Z,100368.31
2023-03-29T16:16:17.180Z,100357.88
2023-03-29T16:18:43.518Z,100355.03
2023-03-29T16:21:11.093Z,100360.28
2023-03-29T16:23:38.887Z,100347.00
2023-03-29T16:26:05.509Z,100355.75
2023-03-29T16:28:32.348Z,100343.03
2023-03-29T16:30:58.666Z,100357.88
2023-03-29T16:33:25.024Z,100345.63
2023-03-29T16:35:51.447Z,100350.31
2023-03-29T16:38:17.865Z,100347.88
2023-03-29T16:40:44.232Z,100342.41
2023-03-29T16:43:10.556Z,100341.97
2023-03-29T16:45:36.902Z,100348.34
2023-03-29T16:48:03.296Z,100350.59
2023-03-29T16:50:29.734Z,100343.66
2023-03-29T16:52:56.141Z,100344.53
2023-03-29T16:55:22.617Z,100346.19
2023-03-29T16:57:49.009Z,100340.91
2023-03-29T17:00:15.376Z,100351.50
2023-03-29T17:02:41.724Z,100334.25
2023-03-29T17:05:08.065Z,100338.03
2023-03-29T17:07:34.414Z,100331.06
2023-03-29T17:10:00.825Z,100338.16
2023-03-29T17:12:27.165Z,100340.88
2023-03-29T17:14:53.553Z,100342.13
2023-03-29T17:17:20.000Z,100342.25
2023-03-29T17:19:46.375Z,100344.22
2023-03-29T17:22:13.016Z,100343.47
2023-03-29T17:24:39.558Z,100340.00
2023-03-29T17:27:06.038Z,100345.91
2023-03-29T17:29:32.416Z,100341.97
2023-03-29T17:31:58.940Z,100343.94
2023-03-29T17:34:25.318Z,100334.25
2023-03-29T17:36:51.715Z,100323.34
2023-03-29T17:39:18.243Z,100335.28
2023-03-29T17:41:44.601Z,100328.50
2023-03-29T17:44:11.001Z,100323.81
2023-03-29T17:46:37.491Z,100337.13
2023-03-29T17:49:03.840Z,100327.59
2023-03-29T17:51:30.335Z,100330.16
2023-03-29T17:53:56.717Z,100329.09
2023-03-29T17:56:23.060Z,100330.47
2023-03-29T17:58:49.504Z,100331.22
2023-03-29T18:01:15.875Z,100331.22
2023-03-29T18:03:42.308Z,100327.59
2023-03-29T18:06:08.652Z,100325.78
2023-03-29T18:08:35.024Z,100320.00
2023-03-29T18:11:01.383Z,100324.09
2023-03-29T18:13:27.793Z,100332.72
2023-03-29T18:15:54.212Z,100332.28
2023-03-29T18:18:20.580Z,100334.25
2023-03-29T18:20:46.886Z,100331.22
2023-03-29T18:23:13.415Z,100336.38
2023-03-29T18:25:39.974Z,100328.94
2023-03-29T18:28:06.305Z,100325.78
2023-03-29T18:30:32.642Z,100327.25
2023-03-29T18:32:59.074Z,100323.94
2023-03-29T18:35:25.621Z,100320.16
2023-03-29T18:37:51.965Z,100313.06
2023-03-29T18:40:18.306Z,100322.44
2023-03-29T18:42:44.685Z,100318.66
2023-03-29T18:45:11.066Z,100322.28
2023-03-29T18:47:37.708Z,100315.78
2023-03-29T18:50:04.202Z,100314.09
2023-03-29T18:52:30.795Z,100308.03
2023-03-29T18:54:57.114Z,100309.72
2023-03-29T18:57:23.512Z,100313.81
2023-03-29T18:59:49.963Z,100300.94
2023-03-29T19:02:16.323Z,100310.47
2023-03-29T19:04:42.704Z,100310.19
2023-03-29T19:07:09.093Z,100307.00
2023-03-29T19:09:35.489Z,100316.84
2023-03-29T19:12:01.829Z,100320.03
2023-03-29T19:14:28.144Z,100308.38
2023-03-29T19:16:54.464Z,100308.50
2023-03-29T19:19:20.825Z,100295.66
2023-03-29T19:21:47.229Z,100309.13
2023-03-29T19:24:13.595Z,100307.13
2023-03-29T19:26:39.965Z,100304.41
2023-03-29T19:29:06.300Z,100308.81
2023-03-29T19:31:32.717Z,100307.31
2023-03-29T19:33:59.122Z,100308.81
2023-03-29T19:36:25.447Z,100306.41
2023-03-29T19:38:51.774Z,100308.81
2023-03-29T19:41:18.100Z,100306.41
2023-03-29T19:43:44.492Z,100298.53
2023-03-29T19:46:10.946Z,100302.16
2023-03-29T19:48:37.468Z,100297.91
2023-03-29T19:51:03.810Z,100293.34
2023-03-29T19:53:30.127Z,100290.19
2023-03-29T19:55:56.470Z,100280.06
2023-03-29T19:58:22.780Z,100291.69
2023-03-29T20:00:49.196Z,100281.88
2023-03-29T20:03:15.528Z,100285.34
2023-03-29T20:05:42.118Z,100287.63
2023-03-29T20:08:08.504Z,100289.28
2023-03-29T20:10:34.878Z,100295.78
2023-03-29T20:13:01.303Z,100287.19
2023-03-29T20:15:27.732Z,100290.63
2023-03-29T20:17:55.315Z,100291.88
2023-03-29T20:20:23.468Z,100283.69
2023-03-29T20:22:49.790Z,100287.63
2023-03-29T20:25:16.194Z,100288.66
2023-03-29T20:27:42.563Z,100281.56
2023-03-29T20:30:08.898Z,100283.38
2023-03-29T20:32:35.344Z,100285.19
2023-03-29T20:35:01.813Z,100286.09
2023-03-29T20:37:28.231Z,100281.13
2023-03-29T20:39:54.648Z,100279.75
2023-03-29T20:42:21.043Z,100283.38
2023-03-29T20:44:47.373Z,100285.81
2023-03-29T20:47:13.698Z,100294.59
2023-03-29T20:49:40.026Z,100296.69
2023-03-29T20:52:06.368Z,100297.47
2023-03-29T20:54:32.678Z,100301.25
2023-03-29T20:56:59.040Z,100303.69
2023-03-29T20:59:25.500Z,100309.41
2023-03-29T21:01:51.897Z,100304.88
2023-03-29T21:04:18.329Z,100300.03
2023-03-29T21:06:44.635Z,100305.63
2023-03-29T21:09:10.949Z,100309.72
2023-03-29T21:11:37.402Z,100319.41
2023-03-29T21:14:03.766Z,100296.09
2023-03-29T21:16:30.175Z,100303.06
2023-03-29T21:18:56.517Z,100299.88
2023-03-29T21:21:22.843Z,100311.84
2023-03-29T21:23:49.204Z,100297.91
2023-03-29T21:26:15.717Z,100295.19
2023-03-29T21:28:42.169Z,100297.47
2023-03-29T21:31:08.564Z,100305.16
2023-03-29T21:33:35.043Z,100302.00
2023-03-29T21:36:01.706Z,100296.41
2023-03-29T21:38:28.036Z,100298.06
2023-03-29T21:40:54.369Z,100310.19
2023-03-29T21:43:20.789Z,100319.88
2023-03-29T21:45:47.155Z,100314.88
2023-03-29T21:48:13.547Z,100284.75
2023-03-29T21:50:39.880Z,100266.44
2023-03-29T21:53:06.458Z,100277.00
2023-03-29T21:55:32.879Z,100297.59
2023-03-29T21:57:59.215Z,100317.16
2023-03-29T22:00:25.546Z,100337.44
2023-03-29T22:02:51.943Z,100331.06
2023-03-29T22:05:18.295Z,100329.56
2023-03-29T22:07:44.648Z,100318.22
2023-03-29T22:10:11.010Z,100319.41
2023-03-29T22:12:37.368Z,100320.63
2023-03-29T22:15:03.718Z,100315.16
2023-03-29T22:17:30.076Z,100335.00
2023-03-29T22:19:56.432Z,100317.44
2023-03-29T22:22:22.914Z,100319.41
2023-03-29T22:24:49.292Z,100350.91
2023-03-29T22:27:15.944Z,100360.28
2023-03-29T22:29:42.413Z,100367.28
2023-03-29T22:32:08.758Z,100350.16
2023-03-29T22:34:35.200Z,100310.94
2023-03-29T22:37:01.543Z,100320.03
2023-03-29T22:39:27.889Z,100324.56
2023-03-29T22:41:54.277Z,100328.66
2023-03-29T22:44:20.795Z,100300.66
2023-03-29T22:46:47.227Z,100292.78
2023-03-29T22:49:13.587Z,100288.66
2023-03-29T22:51:39.965Z,100292.47
2023-03-29T22:54:06.323Z,100288.66
2023-03-29T22:56:32.693Z,100287.03
2023-03-29T22:58:59.048Z,100284.75
2023-03-29T23:01:25.443Z,100275.38
2023-03-29T23:03:51.937Z,100265.38
2023-03-29T23:06:18.382Z,100277.31
2023-03-29T23:08:45.038Z,100267.63
2023-03-29T23:11:11.392Z,100275.38
2023-03-29T23:13:37.759Z,100280.34
2023-03-29T23:16:04.124Z,100280.06
2023-03-29T23:18:30.512Z,100286.72
2023-03-29T23:20:56.887Z,100309.28
2023-03-29T23:23:23.261Z,100304.13
2023-03-29T23:25:49.686Z,100301.09
2023-03-29T23:28:16.120Z,100289.13
2023-03-29T23:30:42.499Z,100271.88
2023-03-29T23:33:08.860Z,100266.09
2023-03-29T23:35:35.259Z,100254.91
2023-03-29T23:38:01.614Z,100250.66
2023-03-29T23:40:27.987Z,100243.41
2023-03-29T23:42:54.299Z,100243.09
2023-03-29T23:45:20.638Z,100230.22
2023-03-29T23:47:47.076Z,100239.63
2023-03-29T23:50:13.469Z,100231.28
2023-03-29T23:52:39.841Z,100234.78
2023-03-29T23:55:06.243Z,100237.66
2023-03-29T23:57:32.647Z,100248.88
2023-03-29T23:59:58.984Z,100248.88
